createdAt,value
2018-06-25T00:00:07.059Z,98897.70
2018-06-25T00:02:36.994Z,98885.64
2018-06-25T00:05:06.210Z,98891.98
2018-06-25T00:07:35.419Z,98891.95
2018-06-25T00:10:04.732Z,98894.05
2018-06-25T00:12:33.883Z,98898.89
2018-06-25T00:15:03.078Z,98899.44
2018-06-25T00:17:32.214Z,98898.90
2018-06-25T00:20:01.327Z,98902.11
2018-06-25T00:22:30.501Z,98902.11
2018-06-25T00:24:59.651Z,98895.37
2018-06-25T00:27:28.826Z,98901.77
2018-06-25T00:29:57.998Z,98903.60
2018-06-25T00:32:27.143Z,98901.16
2018-06-25T00:34:56.255Z,98901.67
2018-06-25T00:37:25.423Z,98903.30
2018-06-25T00:39:54.533Z,98898.77
2018-06-25T00:42:23.682Z,98899.56
2018-06-25T00:44:52.830Z,98895.52
2018-06-25T00:47:21.969Z,98896.89
2018-06-25T00:49:51.093Z,98891.53
2018-06-25T00:52:20.225Z,98895.56
2018-06-25T00:54:50.382Z,98893.19
2018-06-25T00:57:19.544Z,98893.73
2018-06-25T00:59:51.556Z,98887.83
2018-06-25T01:02:21.141Z,98878.41
2018-06-25T01:04:50.302Z,98882.41
2018-06-25T01:07:19.986Z,98888.56
2018-06-25T01:09:49.321Z,98892.61
2018-06-25T01:12:18.507Z,98886.74
2018-06-25T01:14:47.686Z,98889.94
2018-06-25T01:17:16.906Z,98887.52
2018-06-25T01:19:46.024Z,98884.58
2018-06-25T01:22:15.222Z,98885.91
2018-06-25T01:24:44.377Z,98889.11
2018-06-25T01:27:13.537Z,98889.08
2018-06-25T01:29:42.958Z,98893.89
2018-06-25T01:32:12.092Z,98887.18
2018-06-25T01:34:41.282Z,98886.91
2018-06-25T01:37:10.521Z,98887.18
2018-06-25T01:39:39.693Z,98886.37
2018-06-25T01:42:09.272Z,98879.13
2018-06-25T01:44:38.491Z,98888.23
2018-06-25T01:47:08.681Z,98883.69
2018-06-25T01:49:37.833Z,98884.23
2018-06-25T01:52:07.246Z,98878.88
2018-06-25T01:54:37.184Z,98880.23
2018-06-25T01:57:06.615Z,98882.67
2018-06-25T01:59:35.768Z,98881.04
2018-06-25T02:02:05.047Z,98881.04
2018-06-25T02:04:34.146Z,98882.38
2018-06-25T02:07:03.359Z,98878.88
2018-06-25T02:09:32.533Z,98879.95
2018-06-25T02:12:01.697Z,98881.01
2018-06-25T02:14:30.839Z,98870.58
2018-06-25T02:17:00.008Z,98871.63
2018-06-25T02:19:29.149Z,98874.59
2018-06-25T02:21:58.309Z,98866.27
2018-06-25T02:24:27.751Z,98868.14
2018-06-25T02:26:56.888Z,98872.69
2018-06-25T02:29:26.036Z,98864.41
2018-06-25T02:31:55.212Z,98871.36
2018-06-25T02:34:24.360Z,98865.22
2018-06-25T02:36:53.517Z,98857.95
2018-06-25T02:39:22.670Z,98865.45
2018-06-25T02:41:51.810Z,98867.30
2018-06-25T02:44:20.980Z,98876.13
2018-06-25T02:46:50.116Z,98873.69
2018-06-25T02:49:19.295Z,98876.42
2018-06-25T02:51:48.481Z,98876.13
2018-06-25T02:54:17.654Z,98875.59
2018-06-25T02:56:47.182Z,98880.66
2018-06-25T02:59:16.424Z,98879.03
2018-06-25T03:01:45.471Z,98882.52
2018-06-25T03:04:14.603Z,98889.22
2018-06-25T03:06:43.765Z,98884.97
2018-06-25T03:09:12.920Z,98886.83
2018-06-25T03:11:42.057Z,98888.17
2018-06-25T03:14:11.224Z,98888.42
2018-06-25T03:16:40.385Z,98891.41
2018-06-25T03:19:09.609Z,98891.41
2018-06-25T03:21:38.865Z,98891.67
2018-06-25T03:24:08.008Z,98897.02
2018-06-25T03:26:37.155Z,98899.42
2018-06-25T03:29:07.028Z,98899.19
2018-06-25T03:31:36.229Z,98901.03
2018-06-25T03:34:05.925Z,98911.75
2018-06-25T03:36:35.107Z,98908.27
2018-06-25T03:39:06.285Z,98909.36
2018-06-25T03:41:35.453Z,98911.80
2018-06-25T03:44:04.646Z,98917.68
2018-06-25T03:46:33.844Z,98919.31
2018-06-25T03:49:03.005Z,98922.75
2018-06-25T03:51:32.215Z,98930.28
2018-06-25T03:54:01.379Z,98926.84
2018-06-25T03:56:30.549Z,98928.44
2018-06-25T03:58:59.735Z,98929.52
2018-06-25T04:01:28.906Z,98929.52
2018-06-25T04:03:58.055Z,98924.88
2018-06-25T04:06:27.257Z,98935.41
2018-06-25T04:08:56.511Z,98939.44
2018-06-25T04:11:25.718Z,98940.25
2018-06-25T04:13:54.894Z,98939.45
2018-06-25T04:16:24.037Z,98948.56
2018-06-25T04:19:02.512Z,98945.64
2018-06-25T04:21:32.097Z,98953.91
2018-06-25T04:24:01.568Z,98954.75
2018-06-25T04:26:31.086Z,98959.34
2018-06-25T04:29:00.390Z,98954.52
2018-06-25T04:31:30.291Z,98954.55
2018-06-25T04:33:59.821Z,98958.34
2018-06-25T04:36:29.054Z,98958.06
2018-06-25T04:38:58.224Z,98955.16
2018-06-25T04:41:28.115Z,98967.25
2018-06-25T04:43:57.248Z,98972.10
2018-06-25T04:46:26.399Z,98971.29
2018-06-25T04:48:55.611Z,98969.42
2018-06-25T04:51:24.815Z,98978.80
2018-06-25T04:53:53.990Z,98981.74
2018-06-25T04:56:23.166Z,98987.90
2018-06-25T04:58:52.403Z,98986.29
2018-06-25T05:01:21.570Z,98989.78
2018-06-25T05:03:50.741Z,98990.61
2018-06-25T05:06:19.917Z,98986.05
2018-06-25T05:08:49.088Z,98986.05
2018-06-25T05:11:18.270Z,98985.25
2018-06-25T05:13:47.426Z,98986.59
2018-06-25T05:16:16.661Z,98986.05
2018-06-25T05:18:45.822Z,98994.13
2018-06-25T05:21:15.014Z,98989.88
2018-06-25T05:23:44.225Z,98990.97
2018-06-25T05:26:14.370Z,98990.73
2018-06-25T05:28:43.575Z,98995.11
2018-06-25T05:31:12.774Z,98996.21
2018-06-25T05:33:41.922Z,98996.00
2018-06-25T05:36:11.082Z,98992.02
2018-06-25T05:38:40.225Z,98992.62
2018-06-25T05:41:09.603Z,99001.23
2018-06-25T05:43:38.765Z,98999.38
2018-06-25T05:46:08.412Z,99003.49
2018-06-25T05:48:37.600Z,99010.75
2018-06-25T05:51:06.997Z,99010.27
2018-06-25T05:53:36.235Z,99006.55
2018-06-25T05:56:05.631Z,99008.73
2018-06-25T05:58:34.746Z,99008.50
2018-06-25T06:01:04.109Z,99014.16
2018-06-25T06:03:33.353Z,99013.59
2018-06-25T06:06:02.485Z,99021.16
2018-06-25T06:08:31.673Z,99016.88
2018-06-25T06:11:00.830Z,99018.79
2018-06-25T06:13:29.990Z,99018.26
2018-06-25T06:15:59.228Z,99020.66
2018-06-25T06:18:28.385Z,99013.95
2018-06-25T06:20:57.663Z,99012.88
2018-06-25T06:23:26.836Z,99018.52
2018-06-25T06:25:57.339Z,99019.33
2018-06-25T06:28:26.483Z,99015.02
2018-06-25T06:30:55.689Z,99021.21
2018-06-25T06:33:24.846Z,99025.21
2018-06-25T06:35:54.770Z,99017.94
2018-06-25T06:38:23.902Z,99022.76
2018-06-25T06:40:53.065Z,99023.02
2018-06-25T06:43:22.237Z,99028.66
2018-06-25T06:45:51.370Z,99041.36
2018-06-25T06:48:20.518Z,99040.56
2018-06-25T06:50:49.692Z,99043.20
2018-06-25T06:53:19.419Z,99034.34
2018-06-25T06:55:48.869Z,99037.28
2018-06-25T06:58:18.064Z,99035.42
2018-06-25T07:00:47.198Z,99042.61
2018-06-25T07:03:16.437Z,99035.61
2018-06-25T07:05:45.785Z,99032.87
2018-06-25T07:08:14.921Z,99030.97
2018-06-25T07:10:44.061Z,99036.63
2018-06-25T07:13:14.333Z,99041.14
2018-06-25T07:15:43.485Z,99043.62
2018-06-25T07:18:12.653Z,99045.52
2018-06-25T07:20:41.795Z,99038.80
2018-06-25T07:23:10.990Z,99040.38
2018-06-25T07:25:40.198Z,99044.69
2018-06-25T07:28:10.183Z,99044.18
2018-06-25T07:30:39.335Z,99053.89
2018-06-25T07:33:08.658Z,99047.72
2018-06-25T07:35:37.797Z,99052.84
2018-06-25T07:38:06.995Z,99052.87
2018-06-25T07:40:36.171Z,99048.06
2018-06-25T07:43:05.786Z,99054.24
2018-06-25T07:45:34.905Z,99052.89
2018-06-25T07:48:04.123Z,99055.87
2018-06-25T07:50:33.286Z,99055.61
2018-06-25T07:53:02.497Z,99057.75
2018-06-25T07:55:31.637Z,99058.27
2018-06-25T07:58:00.779Z,99045.88
2018-06-25T08:00:29.934Z,99059.09
2018-06-25T08:02:59.060Z,99062.61
2018-06-25T08:05:28.229Z,99053.99
2018-06-25T08:07:57.339Z,99049.11
2018-06-25T08:10:26.573Z,99042.35
2018-06-25T08:12:55.622Z,99036.45
2018-06-25T08:15:24.914Z,99034.63
2018-06-25T08:17:54.088Z,99029.95
2018-06-25T08:20:23.327Z,99029.83
2018-06-25T08:22:52.408Z,99035.03
2018-06-25T08:25:21.540Z,99029.77
2018-06-25T08:27:50.696Z,99028.27
2018-06-25T08:30:19.833Z,99021.79
2018-06-25T08:32:49.058Z,99025.78
2018-06-25T08:35:18.189Z,99032.97
2018-06-25T08:37:47.318Z,99032.40
2018-06-25T08:40:16.603Z,99039.44
2018-06-25T08:42:45.689Z,99047.55
2018-06-25T08:45:15.138Z,99044.17
2018-06-25T08:47:44.580Z,99052.81
2018-06-25T08:50:14.178Z,99053.92
2018-06-25T08:52:43.313Z,99060.34
2018-06-25T08:55:12.532Z,99052.08
2018-06-25T08:57:41.742Z,99056.83
2018-06-25T09:00:10.977Z,99053.86
2018-06-25T09:02:40.165Z,99053.41
2018-06-25T09:05:09.517Z,99061.80
2018-06-25T09:07:38.631Z,99060.03
2018-06-25T09:10:07.897Z,99054.17
2018-06-25T09:12:37.008Z,99064.42
2018-06-25T09:15:06.472Z,99068.88
2018-06-25T09:17:35.596Z,99074.06
2018-06-25T09:20:04.891Z,99073.52
2018-06-25T09:22:34.079Z,99072.84
2018-06-25T09:25:03.369Z,99083.27
2018-06-25T09:27:37.700Z,99080.48
2018-06-25T09:30:06.908Z,99081.05
2018-06-25T09:32:36.046Z,99084.06
2018-06-25T09:35:05.236Z,99086.40
2018-06-25T09:37:34.470Z,99086.70
2018-06-25T09:40:03.686Z,99085.22
2018-06-25T09:42:32.837Z,99084.02
2018-06-25T09:45:01.993Z,99088.65
2018-06-25T09:47:31.131Z,99090.45
2018-06-25T09:50:00.273Z,99096.77
2018-06-25T09:52:29.434Z,99093.09
2018-06-25T09:54:58.653Z,99090.06
2018-06-25T09:57:27.779Z,99096.75
2018-06-25T09:59:56.921Z,99103.12
2018-06-25T10:02:26.094Z,99103.95
2018-06-25T10:04:55.229Z,99097.61
2018-06-25T10:07:24.617Z,99095.32
2018-06-25T10:09:53.751Z,99094.34
2018-06-25T10:12:22.918Z,99095.27
2018-06-25T10:14:52.085Z,99104.54
2018-06-25T10:17:21.222Z,99097.70
2018-06-25T10:19:50.425Z,99104.80
2018-06-25T10:22:19.701Z,99105.73
2018-06-25T10:24:48.879Z,99094.95
2018-06-25T10:27:17.980Z,99101.56
2018-06-25T10:29:47.169Z,99104.77
2018-06-25T10:32:16.318Z,99105.02
2018-06-25T10:34:45.513Z,99104.80
2018-06-25T10:37:14.663Z,99110.52
2018-06-25T10:39:43.777Z,99105.39
2018-06-25T10:42:13.032Z,99108.20
2018-06-25T10:44:42.238Z,99112.35
2018-06-25T10:47:11.370Z,99108.91
2018-06-25T10:49:40.668Z,99109.14
2018-06-25T10:52:09.984Z,99105.12
2018-06-25T10:54:39.126Z,99097.28
2018-06-25T10:57:08.396Z,99102.08
2018-06-25T10:59:37.677Z,99100.92
2018-06-25T11:02:06.744Z,99098.36
2018-06-25T11:04:35.926Z,99107.34
2018-06-25T11:07:05.229Z,99104.00
2018-06-25T11:09:34.387Z,99103.63
2018-06-25T11:12:10.158Z,99100.03
2018-06-25T11:14:39.289Z,99095.77
2018-06-25T11:17:08.610Z,99105.62
2018-06-25T11:19:37.745Z,99108.09
2018-06-25T11:22:06.960Z,99105.39
2018-06-25T11:24:36.098Z,99105.96
2018-06-25T11:27:05.475Z,99104.64
2018-06-25T11:29:34.506Z,99103.50
2018-06-25T11:32:03.723Z,99103.42
2018-06-25T11:34:32.872Z,99093.34
2018-06-25T11:37:02.019Z,99104.31
2018-06-25T11:39:31.161Z,99099.91
2018-06-25T11:42:00.356Z,99104.97
2018-06-25T11:44:29.548Z,99108.25
2018-06-25T11:46:58.722Z,99106.77
2018-06-25T11:49:27.876Z,99097.31
2018-06-25T11:51:57.020Z,99096.14
2018-06-25T11:54:26.145Z,99099.45
2018-06-25T11:56:55.341Z,99101.61
2018-06-25T11:59:24.477Z,99102.95
2018-06-25T12:01:53.703Z,99100.16
2018-06-25T12:04:22.833Z,99099.17
2018-06-25T12:06:51.949Z,99089.69
2018-06-25T12:09:21.224Z,99084.45
2018-06-25T12:11:50.512Z,99090.08
2018-06-25T12:14:19.776Z,99082.81
2018-06-25T12:16:48.932Z,99085.72
2018-06-25T12:19:18.093Z,99088.44
2018-06-25T12:21:47.259Z,99085.97
2018-06-25T12:24:16.409Z,99091.35
2018-06-25T12:26:45.634Z,99090.45
2018-06-25T12:29:14.868Z,99087.39
2018-06-25T12:31:44.038Z,99093.05
2018-06-25T12:34:13.177Z,99084.85
2018-06-25T12:36:42.349Z,99085.41
2018-06-25T12:39:11.673Z,99082.30
2018-06-25T12:41:40.832Z,99088.17
2018-06-25T12:44:10.005Z,99086.76
2018-06-25T12:46:39.697Z,99090.71
2018-06-25T12:49:09.026Z,99093.16
2018-06-25T12:51:38.132Z,99087.73
2018-06-25T12:54:07.268Z,99087.47
2018-06-25T12:56:36.492Z,99083.30
2018-06-25T12:59:05.652Z,99091.06
2018-06-25T13:01:34.876Z,99093.41
2018-06-25T13:04:04.044Z,99088.30
2018-06-25T13:06:33.315Z,99091.55
2018-06-25T13:09:02.598Z,99084.24
2018-06-25T13:11:31.769Z,99084.45
2018-06-25T13:14:02.530Z,99086.81
2018-06-25T13:16:31.697Z,99089.50
2018-06-25T13:19:00.878Z,99086.63
2018-06-25T13:21:30.062Z,99084.42
2018-06-25T13:23:59.298Z,99088.33
2018-06-25T13:26:28.713Z,99086.06
2018-06-25T13:28:57.842Z,99087.63
2018-06-25T13:31:27.031Z,99092.72
2018-06-25T13:33:56.676Z,99089.30
2018-06-25T13:36:25.858Z,99092.19
2018-06-25T13:38:54.977Z,99092.50
2018-06-25T13:41:24.283Z,99092.11
2018-06-25T13:43:53.428Z,99092.72
2018-06-25T13:46:22.612Z,99091.30
2018-06-25T13:48:52.069Z,99087.89
2018-06-25T13:51:21.213Z,99093.49
2018-06-25T13:53:50.380Z,99088.07
2018-06-25T13:56:19.565Z,99087.84
2018-06-25T13:58:48.738Z,99095.27
2018-06-25T14:01:17.953Z,99087.03
2018-06-25T14:03:47.821Z,99091.80
2018-06-25T14:06:16.811Z,99091.58
2018-06-25T14:08:45.969Z,99090.45
2018-06-25T14:11:15.586Z,99089.70
2018-06-25T14:13:46.480Z,99098.48
2018-06-25T14:16:15.713Z,99094.93
2018-06-25T14:18:44.849Z,99092.16
2018-06-25T14:21:14.007Z,99094.18
2018-06-25T14:23:47.348Z,99095.22
2018-06-25T14:26:16.505Z,99088.23
2018-06-25T14:28:45.739Z,99086.84
2018-06-25T14:31:20.148Z,99084.82
2018-06-25T14:33:54.620Z,99088.31
2018-06-25T14:36:23.938Z,99082.89
2018-06-25T14:38:53.069Z,99088.22
2018-06-25T14:41:22.278Z,99080.73
2018-06-25T14:43:51.473Z,99077.03
2018-06-25T14:46:20.582Z,99076.63
2018-06-25T14:48:49.741Z,99079.25
2018-06-25T14:51:18.941Z,99076.69
2018-06-25T14:53:48.118Z,99076.02
2018-06-25T14:56:17.352Z,99074.78
2018-06-25T14:58:46.484Z,99074.77
2018-06-25T15:01:15.658Z,99072.11
2018-06-25T15:03:44.801Z,99074.67
2018-06-25T15:06:14.010Z,99073.52
2018-06-25T15:08:43.185Z,99076.82
2018-06-25T15:11:12.324Z,99074.02
2018-06-25T15:13:41.541Z,99069.89
2018-06-25T15:16:10.709Z,99079.27
2018-06-25T15:18:39.861Z,99072.38
2018-06-25T15:21:09.154Z,99071.19
2018-06-25T15:23:38.350Z,99076.63
2018-06-25T15:26:07.655Z,99072.01
2018-06-25T15:28:36.754Z,99069.65
2018-06-25T15:31:06.042Z,99069.88
2018-06-25T15:33:35.265Z,99062.05
2018-06-25T15:36:04.524Z,99065.64
2018-06-25T15:38:33.666Z,99065.20
2018-06-25T15:41:02.957Z,99061.39
2018-06-25T15:43:32.137Z,99061.94
2018-06-25T15:46:01.275Z,99061.13
2018-06-25T15:48:30.675Z,99071.12
2018-06-25T15:50:59.875Z,99062.36
2018-06-25T15:53:29.048Z,99060.18
2018-06-25T15:55:58.178Z,99057.70
2018-06-25T15:58:27.381Z,99055.96
2018-06-25T16:00:56.557Z,99050.88
2018-06-25T16:03:25.741Z,99052.94
2018-06-25T16:05:54.934Z,99049.73
2018-06-25T16:08:24.091Z,99052.98
2018-06-25T16:10:53.349Z,99056.23
2018-06-25T16:13:22.549Z,99054.23
2018-06-25T16:15:51.707Z,99058.45
2018-06-25T16:18:20.882Z,99061.09
2018-06-25T16:20:50.041Z,99062.36
2018-06-25T16:23:19.209Z,99060.44
2018-06-25T16:25:48.394Z,99066.94
2018-06-25T16:28:17.661Z,99073.02
2018-06-25T16:30:46.848Z,99065.67
2018-06-25T16:33:16.013Z,99065.91
2018-06-25T16:35:45.226Z,99059.89
2018-06-25T16:38:14.394Z,99065.58
2018-06-25T16:40:43.718Z,99063.77
2018-06-25T16:43:12.906Z,99064.17
2018-06-25T16:45:42.082Z,99060.16
2018-06-25T16:48:11.207Z,99061.61
2018-06-25T16:50:40.455Z,99059.81
2018-06-25T16:53:09.629Z,99057.02
2018-06-25T16:55:39.496Z,99067.27
2018-06-25T16:58:08.768Z,99062.34
2018-06-25T17:00:37.935Z,99058.55
2018-06-25T17:03:07.345Z,99053.95
2018-06-25T17:05:36.569Z,99060.91
2018-06-25T17:08:05.836Z,99058.50
2018-06-25T17:10:35.006Z,99065.08
2018-06-25T17:13:04.226Z,99056.31
2018-06-25T17:15:33.400Z,99053.84
2018-06-25T17:18:02.597Z,99059.97
2018-06-25T17:20:31.751Z,99054.74
2018-06-25T17:23:00.892Z,99060.48
2018-06-25T17:25:30.021Z,99057.83
2018-06-25T17:27:59.278Z,99071.77
2018-06-25T17:30:28.393Z,99066.50
2018-06-25T17:32:57.574Z,99069.83
2018-06-25T17:35:26.855Z,99069.92
2018-06-25T17:37:55.986Z,99075.88
2018-06-25T17:40:25.163Z,99084.08
2018-06-25T17:42:54.320Z,99075.23
2018-06-25T17:45:23.425Z,99079.02
2018-06-25T17:47:52.890Z,99086.95
2018-06-25T17:50:22.052Z,99080.58
2018-06-25T17:52:51.326Z,99084.14
2018-06-25T17:55:20.425Z,99085.03
2018-06-25T17:57:49.591Z,99092.14
2018-06-25T18:00:18.749Z,99082.48
2018-06-25T18:02:47.955Z,99088.28
2018-06-25T18:05:17.754Z,99084.77
2018-06-25T18:07:46.945Z,99081.05
2018-06-25T18:10:16.109Z,99081.63
2018-06-25T18:12:47.123Z,99083.22
2018-06-25T18:15:16.262Z,99083.22
2018-06-25T18:17:45.437Z,99079.23
2018-06-25T18:20:14.613Z,99074.59
2018-06-25T18:22:43.809Z,99068.95
2018-06-25T18:25:12.973Z,99078.58
2018-06-25T18:27:42.172Z,99076.25
2018-06-25T18:30:11.367Z,99080.14
2018-06-25T18:32:40.505Z,99085.36
2018-06-25T18:35:09.817Z,99085.42
2018-06-25T18:37:38.999Z,99085.72
2018-06-25T18:40:08.177Z,99090.62
2018-06-25T18:42:37.334Z,99088.80
2018-06-25T18:45:06.659Z,99095.61
2018-06-25T18:47:36.090Z,99095.16
2018-06-25T18:50:05.331Z,99097.36
2018-06-25T18:52:34.558Z,99100.12
2018-06-25T18:55:03.711Z,99106.41
2018-06-25T18:57:32.865Z,99110.25
2018-06-25T19:00:02.121Z,99112.70
2018-06-25T19:02:31.436Z,99116.51
2018-06-25T19:05:00.647Z,99116.34
2018-06-25T19:07:29.924Z,99119.63
2018-06-25T19:09:59.093Z,99114.01
2018-06-25T19:12:28.261Z,99118.66
2018-06-25T19:14:57.393Z,99123.86
2018-06-25T19:17:26.586Z,99134.13
2018-06-25T19:19:55.772Z,99136.87
2018-06-25T19:22:25.129Z,99145.00
2018-06-25T19:24:54.333Z,99149.09
2018-06-25T19:27:23.569Z,99155.05
2018-06-25T19:29:52.761Z,99158.02
2018-06-25T19:32:21.938Z,99164.81
2018-06-25T19:34:51.152Z,99169.16
2018-06-25T19:37:20.443Z,99167.00
2018-06-25T19:39:49.570Z,99173.98
2018-06-25T19:42:18.974Z,99178.59
2018-06-25T19:44:48.186Z,99178.32
2018-06-25T19:47:17.459Z,99177.78
2018-06-25T19:49:46.673Z,99176.97
2018-06-25T19:52:17.473Z,99170.52
2018-06-25T19:54:46.737Z,99169.44
2018-06-25T19:57:15.990Z,99177.53
2018-06-25T19:59:45.158Z,99175.91
2018-06-25T20:02:14.351Z,99178.08
2018-06-25T20:04:43.565Z,99178.09
2018-06-25T20:07:12.811Z,99182.45
2018-06-25T20:09:41.986Z,99181.91
2018-06-25T20:12:11.162Z,99177.56
2018-06-25T20:14:40.499Z,99188.37
2018-06-25T20:17:09.686Z,99184.34
2018-06-25T20:19:38.998Z,99183.02
2018-06-25T20:22:08.197Z,99184.92
2018-06-25T20:24:37.324Z,99184.13
2018-06-25T20:27:06.895Z,99183.08
2018-06-25T20:29:36.180Z,99181.46
2018-06-25T20:32:06.892Z,99183.35
2018-06-25T20:34:36.136Z,99182.84
2018-06-25T20:37:05.700Z,99176.09
2018-06-25T20:39:35.181Z,99182.60
2018-06-25T20:42:04.709Z,99178.83
2018-06-25T20:44:34.466Z,99179.90
2018-06-25T20:47:03.682Z,99186.93
2018-06-25T20:49:32.893Z,99183.69
2018-06-25T20:52:02.095Z,99186.38
2018-06-25T20:54:31.537Z,99185.86
2018-06-25T20:57:00.764Z,99190.43
2018-06-25T20:59:30.045Z,99186.67
2018-06-25T21:01:59.271Z,99192.88
2018-06-25T21:04:28.506Z,99183.46
2018-06-25T21:06:58.358Z,99182.66
2018-06-25T21:09:27.518Z,99189.64
2018-06-25T21:11:56.707Z,99188.84
2018-06-25T21:14:25.920Z,99181.86
2018-06-25T21:16:55.109Z,99183.19
2018-06-25T21:19:24.361Z,99182.94
2018-06-25T21:21:53.573Z,99188.32
2018-06-25T21:24:22.770Z,99188.86
2018-06-25T21:26:51.962Z,99191.55
2018-06-25T21:29:21.212Z,99188.86
2018-06-25T21:31:50.477Z,99183.20
2018-06-25T21:34:19.702Z,99182.92
2018-06-25T21:36:50.894Z,99184.27
2018-06-25T21:39:20.097Z,99182.67
2018-06-25T21:41:49.336Z,99186.97
2018-06-25T21:44:18.545Z,99185.09
2018-06-25T21:46:47.810Z,99186.41
2018-06-25T21:49:17.046Z,99189.36
2018-06-25T21:51:46.317Z,99187.48
2018-06-25T21:54:15.612Z,99179.13
2018-06-25T21:56:44.935Z,99187.74
2018-06-25T21:59:14.218Z,99189.34
2018-06-25T22:01:43.949Z,99191.25
2018-06-25T22:04:13.171Z,99190.15
2018-06-25T22:06:44.376Z,99190.68
2018-06-25T22:09:13.572Z,99192.56
2018-06-25T22:11:42.803Z,99189.33
2018-06-25T22:14:12.301Z,99185.02
2018-06-25T22:16:41.472Z,99186.36
2018-06-25T22:19:11.445Z,99188.80
2018-06-25T22:21:40.719Z,99185.55
2018-06-25T22:24:09.963Z,99180.98
2018-06-25T22:26:39.222Z,99180.70
2018-06-25T22:29:08.609Z,99179.09
2018-06-25T22:31:37.875Z,99185.01
2018-06-25T22:34:14.316Z,99183.91
2018-06-25T22:36:43.575Z,99180.16
2018-06-25T22:39:29.040Z,99181.22
2018-06-25T22:44:45.838Z,99175.84
2018-06-25T22:47:15.246Z,99186.07
2018-06-25T22:49:44.436Z,99186.36
2018-06-25T22:52:14.295Z,99181.50
2018-06-25T22:54:43.550Z,99183.14
2018-06-25T22:57:12.783Z,99183.14
2018-06-25T22:59:42.058Z,99175.59
2018-06-25T23:02:11.316Z,99179.38
2018-06-25T23:04:40.590Z,99172.09
2018-06-25T23:07:09.910Z,99178.05
2018-06-25T23:09:39.132Z,99179.92
2018-06-25T23:12:08.432Z,99172.13
2018-06-25T23:14:37.658Z,99172.66
2018-06-25T23:17:07.374Z,99171.03
2018-06-25T23:19:36.985Z,99173.47
2018-06-25T23:22:06.313Z,99168.63
2018-06-25T23:24:35.784Z,99162.71
2018-06-25T23:27:05.237Z,99161.37
2018-06-25T23:29:34.473Z,99162.42
2018-06-25T23:32:03.629Z,99158.39
2018-06-25T23:34:32.926Z,99159.73
2018-06-25T23:37:02.203Z,99159.48
2018-06-25T23:39:31.365Z,99150.59
2018-06-25T23:42:00.558Z,99154.64
2018-06-25T23:44:30.424Z,99151.95
2018-06-25T23:46:59.621Z,99153.83
2018-06-25T23:49:28.764Z,99144.94
2018-06-25T23:51:58.023Z,99148.20
2018-06-25T23:54:27.281Z,99146.03
2018-06-25T23:56:56.462Z,99149.80
2018-06-25T23:59:25.742Z,99144.69
